Phoenix, AZ (85063)

2:10 PM MST on March 06, 2015 (GMT -0700)
APRSWXNET Phoenix AZ US | Change Station
CLOSE
Current Station
Personal Weather Station
Location: Phoenix, AZ
Elevation: 1124 ft
Nearby Weather Stations

Elev 1124 ft 33.50 °N, 112.15 °W | Updated 45 minutes ago

Clear
Clear
77 °F
Feels Like 76 °F
N
8
Wind Variable Wind from East
Gusts 16.0 mph

Today
High -- | Low -- °F
--% Chance of Precip.
Yesterday
High -- | Low -- °F
Precip. -- in
6:50 AM 6:29 PM
Full, 99% visible
Pressure 30.06 in
Visibility 20.0 miles
Clouds Clear
Heat Index 76 °F
Dew Point 18 °F
Humidity 11%
Rainfall in
Snow Depth Not available.
UV 7 out of 12
Pollen 10.00 out of 12
Air Quality Not available.
Flu Activity Not available.
METAR KGEU 062047Z 05013G18KT 20SM SKC 27/M11 A3006

More Conditions Fewer Conditions

Pressure 30.06 in
Visibility 20.0 miles
Clouds Clear
Heat Index 76 °F
Dew Point 18 °F
Humidity 11%
Rainfall in
Snow Depth Not available.
UV 7 out of 12
Pollen 10.00 out of 12
Air Quality Not available.
Flu Activity Not available.
METAR KGEU 062047Z 05013G18KT 20SM SKC 27/M11 A3006

More Conditions Fewer Conditions

10-Day Weather Forecast

Almanac

Astronomy

Mar. 06, 2015 Rise Set
Actual Time
Civil Twilight
Nautical Twilight
Astronomical Twilight
Moon
Length of Visible Light
Length of Day
Tomorrow will be .
, % of the Moon is Illuminated

Today's Extremes

State Highs State Lows

Community

WunderPhotos

Upload Photos

1,803,401 photos uploaded!

WunderBlogs® & News

Nearby

Air Quality

  Air Quality AQ Index Pollutant
Not available.

Snow Depth

Station Depth Elevation

Earthquake Activity

City Distance Mag. Time & Date
Minimum magnitude displayed is 2.5.

Coastal Water Temperatures

Place Temperature

Nearby Weather Stations